sensor_id;sensor_type;location;lat;lon;timestamp;pressure;altitude;pressure_sealevel;temperature;humidity
7200;BME280;3641;49.082;8.200;2022-08-01T00:00:03;100280.66;;;23.27;44.91
7200;BME280;3641;49.082;8.200;2022-08-01T00:02:31;100278.22;;;23.36;45.01
7200;BME280;3641;49.082;8.200;2022-08-01T00:04:58;100277.41;;;23.46;44.97
7200;BME280;3641;49.082;8.200;2022-08-01T00:07:25;100279.13;;;23.62;43.41
7200;BME280;3641;49.082;8.200;2022-08-01T00:09:51;100280.50;;;23.60;44.36
7200;BME280;3641;49.082;8.200;2022-08-01T00:12:19;100285.78;;;23.51;45.98
7200;BME280;3641;49.082;8.200;2022-08-01T00:14:46;100286.94;;;23.60;46.10
7200;BME280;3641;49.082;8.200;2022-08-01T00:17:12;100290.53;;;23.50;47.97
7200;BME280;3641;49.082;8.200;2022-08-01T00:19:39;100295.97;;;23.25;47.44
7200;BME280;3641;49.082;8.200;2022-08-01T00:22:06;100291.66;;;23.60;44.17
7200;BME280;3641;49.082;8.200;2022-08-01T00:24:33;100296.00;;;23.30;45.52
7200;BME280;3641;49.082;8.200;2022-08-01T00:26:59;100292.16;;;23.36;45.20
7200;BME280;3641;49.082;8.200;2022-08-01T00:29:27;100295.75;;;23.31;46.17
7200;BME280;3641;49.082;8.200;2022-08-01T00:31:54;100306.00;;;23.26;49.52
7200;BME280;3641;49.082;8.200;2022-08-01T00:34:20;100304.13;;;23.36;50.11
7200;BME280;3641;49.082;8.200;2022-08-01T00:36:47;100294.84;;;23.20;46.57
7200;BME280;3641;49.082;8.200;2022-08-01T00:39:13;100294.69;;;23.53;45.42
7200;BME280;3641;49.082;8.200;2022-08-01T00:41:40;100300.81;;;23.45;45.64
7200;BME280;3641;49.082;8.200;2022-08-01T00:44:06;100296.66;;;23.47;48.52
7200;BME280;3641;49.082;8.200;2022-08-01T00:46:34;100293.25;;;23.35;46.34
7200;BME280;3641;49.082;8.200;2022-08-01T00:49:01;100293.25;;;23.35;47.37
7200;BME280;3641;49.082;8.200;2022-08-01T00:51:28;100299.38;;;23.42;46.14
7200;BME280;3641;49.082;8.200;2022-08-01T00:53:55;100301.16;;;23.06;50.84
7200;BME280;3641;49.082;8.200;2022-08-01T00:56:24;100295.38;;;23.17;47.00
7200;BME280;3641;49.082;8.200;2022-08-01T00:58:51;100302.69;;;23.34;46.18
7200;BME280;3641;49.082;8.200;2022-08-01T01:01:18;100313.00;;;23.28;47.63
7200;BME280;3641;49.082;8.200;2022-08-01T01:03:47;100306.56;;;23.28;49.73
7200;BME280;3641;49.082;8.200;2022-08-01T01:06:23;100307.34;;;23.18;48.39
7200;BME280;3641;49.082;8.200;2022-08-01T01:08:58;100306.72;;;23.06;51.25
7200;BME280;3641;49.082;8.200;2022-08-01T01:11:33;100305.44;;;23.18;48.04
7200;BME280;3641;49.082;8.200;2022-08-01T01:14:10;100304.31;;;23.25;46.94
7200;BME280;3641;49.082;8.200;2022-08-01T01:16:40;100300.16;;;23.22;46.59
7200;BME280;3641;49.082;8.200;2022-08-01T01:19:15;100306.50;;;23.12;50.81
7200;BME280;3641;49.082;8.200;2022-08-01T01:22:08;100307.06;;;23.14;47.38
7200;BME280;3641;49.082;8.200;2022-08-01T01:24:45;100307.34;;;23.13;49.84
7200;BME280;3641;49.082;8.200;2022-08-01T01:27:24;100311.94;;;22.97;51.35
7200;BME280;3641;49.082;8.200;2022-08-01T01:29:57;100315.66;;;23.08;47.17
7200;BME280;3641;49.082;8.200;2022-08-01T01:32:30;100308.47;;;22.74;52.27
7200;BME280;3641;49.082;8.200;2022-08-01T01:35:00;100299.66;;;22.93;47.83
7200;BME280;3641;49.082;8.200;2022-08-01T01:37:29;100305.91;;;22.67;48.74
7200;BME280;3641;49.082;8.200;2022-08-01T01:39:58;100301.38;;;22.56;52.65
7200;BME280;3641;49.082;8.200;2022-08-01T01:42:26;100304.75;;;22.63;48.68
7200;BME280;3641;49.082;8.200;2022-08-01T01:44:55;100310.19;;;22.80;49.43
7200;BME280;3641;49.082;8.200;2022-08-01T01:47:24;100308.72;;;22.73;51.66
7200;BME280;3641;49.082;8.200;2022-08-01T01:49:53;100316.38;;;22.55;50.30
7200;BME280;3641;49.082;8.200;2022-08-01T01:52:21;100323.78;;;22.77;47.62
7200;BME280;3641;49.082;8.200;2022-08-01T01:54:50;100312.28;;;22.63;49.80
7200;BME280;3641;49.082;8.200;2022-08-01T01:57:18;100327.47;;;22.50;48.67
7200;BME280;3641;49.082;8.200;2022-08-01T01:59:46;100320.34;;;22.32;50.97
7200;BME280;3641;49.082;8.200;2022-08-01T02:02:16;100322.97;;;22.17;49.28
7200;BME280;3641;49.082;8.200;2022-08-01T02:04:44;100330.94;;;22.08;48.79
7200;BME280;3641;49.082;8.200;2022-08-01T02:07:13;100329.28;;;21.80;52.86
7200;BME280;3641;49.082;8.200;2022-08-01T02:09:42;100331.63;;;21.93;49.17
7200;BME280;3641;49.082;8.200;2022-08-01T02:12:10;100336.19;;;22.04;49.23
7200;BME280;3641;49.082;8.200;2022-08-01T02:14:37;100334.41;;;21.93;49.09
7200;BME280;3641;49.082;8.200;2022-08-01T02:17:05;100334.13;;;21.67;50.57
7200;BME280;3641;49.082;8.200;2022-08-01T02:19:33;100335.34;;;21.54;53.95
7200;BME280;3641;49.082;8.200;2022-08-01T02:22:01;100339.41;;;21.91;50.18
7200;BME280;3641;49.082;8.200;2022-08-01T02:24:34;100336.56;;;22.13;48.08
7200;BME280;3641;49.082;8.200;2022-08-01T02:27:07;100336.50;;;22.08;48.08
7200;BME280;3641;49.082;8.200;2022-08-01T02:29:37;100333.94;;;21.13;56.07
7200;BME280;3641;49.082;8.200;2022-08-01T02:32:07;100337.16;;;21.66;50.24
7200;BME280;3641;49.082;8.200;2022-08-01T02:34:38;100340.50;;;21.68;52.38
7200;BME280;3641;49.082;8.200;2022-08-01T02:37:06;100338.38;;;21.75;49.50
7200;BME280;3641;49.082;8.200;2022-08-01T02:39:36;100348.94;;;21.51;53.73
7200;BME280;3641;49.082;8.200;2022-08-01T02:42:06;100345.44;;;21.21;55.38
7200;BME280;3641;49.082;8.200;2022-08-01T02:44:37;100346.38;;;21.10;52.81
7200;BME280;3641;49.082;8.200;2022-08-01T02:47:05;100348.41;;;21.15;51.87
7200;BME280;3641;49.082;8.200;2022-08-01T02:49:33;100350.88;;;20.77;58.27
7200;BME280;3641;49.082;8.200;2022-08-01T02:52:06;100343.75;;;20.81;53.55
7200;BME280;3641;49.082;8.200;2022-08-01T02:54:34;100348.91;;;20.27;59.77
7200;BME280;3641;49.082;8.200;2022-08-01T02:57:04;100349.97;;;20.26;59.31
7200;BME280;3641;49.082;8.200;2022-08-01T02:59:33;100348.16;;;20.99;56.39
7200;BME280;3641;49.082;8.200;2022-08-01T03:02:03;100353.16;;;20.80;57.65
7200;BME280;3641;49.082;8.200;2022-08-01T03:04:32;100340.84;;;20.25;59.10
7200;BME280;3641;49.082;8.200;2022-08-01T03:07:03;100346.28;;;20.20;58.81
7200;BME280;3641;49.082;8.200;2022-08-01T03:09:33;100332.84;;;20.29;57.44
7200;BME280;3641;49.082;8.200;2022-08-01T03:12:02;100343.47;;;20.49;55.41
7200;BME280;3641;49.082;8.200;2022-08-01T03:14:32;100343.94;;;20.63;56.59
7200;BME280;3641;49.082;8.200;2022-08-01T03:17:12;100341.78;;;20.82;54.13
7200;BME280;3641;49.082;8.200;2022-08-01T03:19:39;100339.59;;;20.33;59.15
7200;BME280;3641;49.082;8.200;2022-08-01T03:22:11;100347.19;;;20.72;57.91
7200;BME280;3641;49.082;8.200;2022-08-01T03:24:40;100345.00;;;20.91;52.62
7200;BME280;3641;49.082;8.200;2022-08-01T03:27:08;100342.59;;;20.48;57.97
7200;BME280;3641;49.082;8.200;2022-08-01T03:29:35;100346.31;;;20.54;54.27
7200;BME280;3641;49.082;8.200;2022-08-01T03:32:03;100350.63;;;20.96;54.10
7200;BME280;3641;49.082;8.200;2022-08-01T03:34:30;100345.44;;;20.20;59.91
7200;BME280;3641;49.082;8.200;2022-08-01T03:37:02;100350.16;;;20.65;55.74
7200;BME280;3641;49.082;8.200;2022-08-01T03:39:38;100354.00;;;19.89;61.46
7200;BME280;3641;49.082;8.200;2022-08-01T03:42:12;100344.34;;;20.21;58.55
7200;BME280;3641;49.082;8.200;2022-08-01T03:44:41;100343.44;;;20.32;55.06
7200;BME280;3641;49.082;8.200;2022-08-01T03:47:08;100338.34;;;19.95;60.15
7200;BME280;3641;49.082;8.200;2022-08-01T03:49:40;100343.44;;;20.32;56.83
7200;BME280;3641;49.082;8.200;2022-08-01T03:52:08;100336.50;;;20.01;61.30
7200;BME280;3641;49.082;8.200;2022-08-01T03:54:38;100338.88;;;20.09;60.55
7200;BME280;3641;49.082;8.200;2022-08-01T03:57:07;100342.53;;;20.43;56.41
7200;BME280;3641;49.082;8.200;2022-08-01T03:59:35;100341.59;;;20.55;58.76
7200;BME280;3641;49.082;8.200;2022-08-01T04:02:04;100336.28;;;20.19;59.16
7200;BME280;3641;49.082;8.200;2022-08-01T04:04:31;100346.06;;;19.93;60.30
7200;BME280;3641;49.082;8.200;2022-08-01T04:06:57;100334.22;;;20.26;58.06
7200;BME280;3641;49.082;8.200;2022-08-01T04:09:29;100340.34;;;20.28;59.89
7200;BME280;3641;49.082;8.200;2022-08-01T04:11:58;100338.78;;;20.04;57.74
7200;BME280;3641;49.082;8.200;2022-08-01T04:14:24;100344.44;;;19.80;61.33
7200;BME280;3641;49.082;8.200;2022-08-01T04:16:51;100339.25;;;20.01;58.32
7200;BME280;3641;49.082;8.200;2022-08-01T04:19:17;100346.84;;;19.65;63.13
7200;BME280;3641;49.082;8.200;2022-08-01T04:21:44;100349.69;;;19.41;64.00
7200;BME280;3641;49.082;8.200;2022-08-01T04:24:13;100351.63;;;19.29;64.96
7200;BME280;3641;49.082;8.200;2022-08-01T04:26:43;100342.28;;;19.18;65.53
7200;BME280;3641;49.082;8.200;2022-08-01T04:29:14;100343.13;;;19.59;63.80
7200;BME280;3641;49.082;8.200;2022-08-01T04:31:44;100342.19;;;19.94;57.11
7200;BME280;3641;49.082;8.200;2022-08-01T04:34:14;100349.72;;;20.27;57.56
7200;BME280;3641;49.082;8.200;2022-08-01T04:36:42;100355.56;;;20.43;59.34
7200;BME280;3641;49.082;8.200;2022-08-01T04:39:10;100355.28;;;19.82;62.71
7200;BME280;3641;49.082;8.200;2022-08-01T04:41:38;100356.97;;;20.28;60.08
7200;BME280;3641;49.082;8.200;2022-08-01T04:44:05;100350.06;;;19.73;62.39
7200;BME280;3641;49.082;8.200;2022-08-01T04:46:33;100356.94;;;19.83;63.04
7200;BME280;3641;49.082;8.200;2022-08-01T04:49:02;100366.22;;;19.76;59.75
7200;BME280;3641;49.082;8.200;2022-08-01T04:51:30;100365.59;;;20.15;60.79
7200;BME280;3641;49.082;8.200;2022-08-01T04:53:57;100362.13;;;19.67;59.75
7200;BME280;3641;49.082;8.200;2022-08-01T04:56:23;100366.63;;;19.45;64.71
7200;BME280;3641;49.082;8.200;2022-08-01T04:58:50;100358.72;;;19.89;62.29
7200;BME280;3641;49.082;8.200;2022-08-01T05:01:38;100357.25;;;19.98;58.05
7200;BME280;3641;49.082;8.200;2022-08-01T05:04:04;100371.69;;;20.46;59.87
7200;BME280;3641;49.082;8.200;2022-08-01T05:06:31;100362.81;;;20.15;57.66
7200;BME280;3641;49.082;8.200;2022-08-01T05:08:57;100374.47;;;20.46;58.09
7200;BME280;3641;49.082;8.200;2022-08-01T05:11:24;100379.16;;;20.45;59.33
7200;BME280;3641;49.082;8.200;2022-08-01T05:13:50;100367.44;;;20.09;61.22
7200;BME280;3641;49.082;8.200;2022-08-01T05:16:17;100376.31;;;19.94;63.45
7200;BME280;3641;49.082;8.200;2022-08-01T05:18:45;100374.31;;;20.53;58.53
7200;BME280;3641;49.082;8.200;2022-08-01T05:21:11;100364.91;;;19.79;64.24
7200;BME280;3641;49.082;8.200;2022-08-01T05:23:38;100369.25;;;20.04;63.20
7200;BME280;3641;49.082;8.200;2022-08-01T05:26:04;100368.25;;;20.10;60.26
7200;BME280;3641;49.082;8.200;2022-08-01T05:28:31;100369.22;;;20.16;63.58
7200;BME280;3641;49.082;8.200;2022-08-01T05:30:57;100371.34;;;20.25;62.02
7200;BME280;3641;49.082;8.200;2022-08-01T05:33:24;100362.75;;;20.27;63.02
7200;BME280;3641;49.082;8.200;2022-08-01T05:35:52;100363.31;;;19.83;65.27
7200;BME280;3641;49.082;8.200;2022-08-01T05:38:18;100366.22;;;20.05;60.35
7200;BME280;3641;49.082;8.200;2022-08-01T05:40:45;100369.59;;;20.36;63.07
7200;BME280;3641;49.082;8.200;2022-08-01T05:43:11;100369.59;;;20.53;61.87
7200;BME280;3641;49.082;8.200;2022-08-01T05:45:38;100375.38;;;20.35;63.71
7200;BME280;3641;49.082;8.200;2022-08-01T05:48:06;100371.63;;;20.58;62.44
7200;BME280;3641;49.082;8.200;2022-08-01T05:50:33;100371.63;;;20.41;64.53
7200;BME280;3641;49.082;8.200;2022-08-01T05:53:01;100370.59;;;20.47;64.72
7200;BME280;3641;49.082;8.200;2022-08-01T05:55:27;100366.69;;;20.94;58.42
7200;BME280;3641;49.082;8.200;2022-08-01T05:57:54;100369.97;;;21.30;57.78
7200;BME280;3641;49.082;8.200;2022-08-01T06:00:21;100372.09;;;21.22;60.18
7200;BME280;3641;49.082;8.200;2022-08-01T06:02:47;100379.88;;;21.42;62.54
7200;BME280;3641;49.082;8.200;2022-08-01T06:05:14;100372.22;;;21.94;59.26
7200;BME280;3641;49.082;8.200;2022-08-01T06:07:40;100370.59;;;22.25;60.31
7200;BME280;3641;49.082;8.200;2022-08-01T06:10:09;100371.44;;;22.85;58.21
7200;BME280;3641;49.082;8.200;2022-08-01T06:12:36;100378.78;;;23.39;57.38
7200;BME280;3641;49.082;8.200;2022-08-01T06:15:04;100385.13;;;25.78;50.00
7200;BME280;3641;49.082;8.200;2022-08-01T06:17:30;100381.13;;;27.91;44.56
7200;BME280;3641;49.082;8.200;2022-08-01T06:19:57;100382.31;;;28.66;42.61
7200;BME280;3641;49.082;8.200;2022-08-01T06:22:23;100379.25;;;27.62;43.94
7200;BME280;3641;49.082;8.200;2022-08-01T06:24:50;100372.75;;;25.29;49.66
7200;BME280;3641;49.082;8.200;2022-08-01T06:27:18;100375.22;;;24.18;51.98
7200;BME280;3641;49.082;8.200;2022-08-01T06:29:44;100377.34;;;23.85;52.13
7200;BME280;3641;49.082;8.200;2022-08-01T06:32:11;100369.25;;;23.25;56.66
7200;BME280;3641;49.082;8.200;2022-08-01T06:34:37;100374.38;;;23.06;55.22
7200;BME280;3641;49.082;8.200;2022-08-01T06:37:04;100367.00;;;23.22;57.04
7200;BME280;3641;49.082;8.200;2022-08-01T06:39:30;100374.69;;;23.10;55.16
7200;BME280;3641;49.082;8.200;2022-08-01T06:41:57;100374.25;;;22.91;57.77
7200;BME280;3641;49.082;8.200;2022-08-01T06:44:25;100379.22;;;22.83;57.81
7200;BME280;3641;49.082;8.200;2022-08-01T06:46:51;100386.41;;;23.12;55.21
7200;BME280;3641;49.082;8.200;2022-08-01T06:49:18;100371.41;;;23.18;56.59
7200;BME280;3641;49.082;8.200;2022-08-01T06:51:44;100379.94;;;23.06;55.98
7200;BME280;3641;49.082;8.200;2022-08-01T06:54:11;100378.97;;;23.28;53.91
7200;BME280;3641;49.082;8.200;2022-08-01T06:56:37;100388.19;;;23.28;54.89
7200;BME280;3641;49.082;8.200;2022-08-01T06:59:04;100386.25;;;23.29;55.89
7200;BME280;3641;49.082;8.200;2022-08-01T07:01:32;100386.28;;;23.39;54.40
7200;BME280;3641;49.082;8.200;2022-08-01T07:03:58;100387.16;;;23.45;55.71
7200;BME280;3641;49.082;8.200;2022-08-01T07:06:25;100387.03;;;23.19;56.71
7200;BME280;3641;49.082;8.200;2022-08-01T07:08:52;100386.63;;;23.48;55.03
7200;BME280;3641;49.082;8.200;2022-08-01T07:11:20;100385.94;;;23.20;57.13
7200;BME280;3641;49.082;8.200;2022-08-01T07:13:46;100388.78;;;23.35;55.37
7200;BME280;3641;49.082;8.200;2022-08-01T07:16:13;100386.63;;;23.48;54.00
7200;BME280;3641;49.082;8.200;2022-08-01T07:18:41;100384.94;;;23.47;55.84
7200;BME280;3641;49.082;8.200;2022-08-01T07:21:08;100383.41;;;23.71;54.98
7200;BME280;3641;49.082;8.200;2022-08-01T07:23:35;100375.88;;;23.72;53.34
7200;BME280;3641;49.082;8.200;2022-08-01T07:26:02;100383.16;;;23.78;53.88
7200;BME280;3641;49.082;8.200;2022-08-01T07:28:30;100380.41;;;23.88;52.73
7200;BME280;3641;49.082;8.200;2022-08-01T07:30:57;100373.72;;;23.89;53.38
7200;BME280;3641;49.082;8.200;2022-08-01T07:33:23;100374.84;;;23.88;53.78
7200;BME280;3641;49.082;8.200;2022-08-01T07:35:51;100374.81;;;23.83;52.79
7200;BME280;3641;49.082;8.200;2022-08-01T07:38:18;100380.69;;;23.87;52.65
7200;BME280;3641;49.082;8.200;2022-08-01T07:40:44;100378.75;;;23.87;52.51
7200;BME280;3641;49.082;8.200;2022-08-01T07:43:11;100376.25;;;23.91;51.75
7200;BME280;3641;49.082;8.200;2022-08-01T07:45:38;100373.81;;;24.10;51.16
7200;BME280;3641;49.082;8.200;2022-08-01T07:48:05;100370.13;;;23.94;52.26
7200;BME280;3641;49.082;8.200;2022-08-01T07:50:32;100369.91;;;24.11;51.78
7200;BME280;3641;49.082;8.200;2022-08-01T07:53:00;100377.72;;;24.14;51.76
7200;BME280;3641;49.082;8.200;2022-08-01T07:55:27;100379.66;;;24.19;51.79
7200;BME280;3641;49.082;8.200;2022-08-01T07:57:54;100378.59;;;24.30;51.41
7200;BME280;3641;49.082;8.200;2022-08-01T08:00:20;100372.16;;;24.35;50.71
7200;BME280;3641;49.082;8.200;2022-08-01T08:02:47;100377.19;;;24.38;51.06
7200;BME280;3641;49.082;8.200;2022-08-01T08:05:13;100373.88;;;24.46;50.50
7200;BME280;3641;49.082;8.200;2022-08-01T08:07:40;100376.34;;;24.42;51.10
7200;BME280;3641;49.082;8.200;2022-08-01T08:10:08;100379.69;;;24.29;51.18
7200;BME280;3641;49.082;8.200;2022-08-01T08:12:35;100370.50;;;24.44;50.81
7200;BME280;3641;49.082;8.200;2022-08-01T08:15:02;100368.81;;;24.38;51.30
7200;BME280;3641;49.082;8.200;2022-08-01T08:17:31;100365.22;;;24.53;50.36
7200;BME280;3641;49.082;8.200;2022-08-01T08:19:58;100371.91;;;24.52;51.01
7200;BME280;3641;49.082;8.200;2022-08-01T08:22:25;100370.78;;;24.47;51.27
7200;BME280;3641;49.082;8.200;2022-08-01T08:24:51;100361.03;;;24.50;50.87
7200;BME280;3641;49.082;8.200;2022-08-01T08:27:19;100365.22;;;24.53;51.06
7200;BME280;3641;49.082;8.200;2022-08-01T08:29:46;100365.50;;;24.51;51.78
7200;BME280;3641;49.082;8.200;2022-08-01T08:32:12;100376.63;;;24.41;51.64
7200;BME280;3641;49.082;8.200;2022-08-01T08:34:39;100366.88;;;24.48;51.12
7200;BME280;3641;49.082;8.200;2022-08-01T08:37:05;100370.22;;;24.35;51.10
7200;BME280;3641;49.082;8.200;2022-08-01T08:39:32;100361.50;;;24.06;51.79
7200;BME280;3641;49.082;8.200;2022-08-01T08:41:59;100352.91;;;24.28;52.27
7200;BME280;3641;49.082;8.200;2022-08-01T08:44:28;100363.19;;;24.17;51.97
7200;BME280;3641;49.082;8.200;2022-08-01T08:46:55;100366.31;;;24.36;51.83
7200;BME280;3641;49.082;8.200;2022-08-01T08:49:26;100361.84;;;24.40;50.21
7200;BME280;3641;49.082;8.200;2022-08-01T08:51:53;100364.63;;;24.25;50.94
7200;BME280;3641;49.082;8.200;2022-08-01T08:54:23;100352.38;;;24.41;50.85
7200;BME280;3641;49.082;8.200;2022-08-01T08:56:51;100353.81;;;24.59;50.36
7200;BME280;3641;49.082;8.200;2022-08-01T08:59:18;100358.81;;;24.78;50.13
7200;BME280;3641;49.082;8.200;2022-08-01T09:01:47;100359.94;;;24.82;49.61
7200;BME280;3641;49.082;8.200;2022-08-01T09:04:13;100366.38;;;24.88;49.74
7200;BME280;3641;49.082;8.200;2022-08-01T09:06:40;100363.00;;;24.91;49.32
7200;BME280;3641;49.082;8.200;2022-08-01T09:09:08;100362.72;;;24.92;49.67
7200;BME280;3641;49.082;8.200;2022-08-01T09:11:36;100365.22;;;24.99;49.77
7200;BME280;3641;49.082;8.200;2022-08-01T09:14:06;100367.72;;;24.95;49.83
7200;BME280;3641;49.082;8.200;2022-08-01T09:16:34;100368.56;;;25.01;49.46
7200;BME280;3641;49.082;8.200;2022-08-01T09:19:10;100369.69;;;25.05;49.63
7200;BME280;3641;49.082;8.200;2022-08-01T09:21:37;100372.72;;;25.19;49.64
7200;BME280;3641;49.082;8.200;2022-08-01T09:24:13;100371.88;;;25.24;49.62
7200;BME280;3641;49.082;8.200;2022-08-01T09:26:40;100369.94;;;25.24;49.81
7200;BME280;3641;49.082;8.200;2022-08-01T09:29:08;100368.53;;;25.42;48.99
7200;BME280;3641;49.082;8.200;2022-08-01T09:31:44;100364.31;;;25.40;49.30
7200;BME280;3641;49.082;8.200;2022-08-01T09:34:13;100375.81;;;25.33;49.41
7200;BME280;3641;49.082;8.200;2022-08-01T09:36:44;100363.50;;;25.18;49.99
7200;BME280;3641;49.082;8.200;2022-08-01T09:39:14;100371.63;;;25.15;49.99
7200;BME280;3641;49.082;8.200;2022-08-01T09:41:41;100364.91;;;25.21;49.64
7200;BME280;3641;49.082;8.200;2022-08-01T09:44:08;100358.22;;;25.17;50.68
7200;BME280;3641;49.082;8.200;2022-08-01T09:46:34;100364.34;;;25.34;49.67
7200;BME280;3641;49.082;8.200;2022-08-01T09:49:03;100370.75;;;25.45;49.55
7200;BME280;3641;49.082;8.200;2022-08-01T09:51:33;100376.59;;;25.49;50.13
7200;BME280;3641;49.082;8.200;2022-08-01T09:54:01;100373.56;;;25.30;49.84
7200;BME280;3641;49.082;8.200;2022-08-01T09:56:36;100373.84;;;25.33;50.13
7200;BME280;3641;49.082;8.200;2022-08-01T09:59:02;100373.75;;;25.59;49.41
7200;BME280;3641;49.082;8.200;2022-08-01T10:01:42;100367.94;;;25.45;49.71
7200;BME280;3641;49.082;8.200;2022-08-01T10:04:11;100370.75;;;25.45;50.15
7200;BME280;3641;49.082;8.200;2022-08-01T10:06:40;100373.25;;;25.42;49.53
7200;BME280;3641;49.082;8.200;2022-08-01T10:09:08;100369.34;;;25.43;49.48
7200;BME280;3641;49.082;8.200;2022-08-01T10:11:36;100362.88;;;25.52;49.28
7200;BME280;3641;49.082;8.200;2022-08-01T10:14:04;100373.19;;;25.67;49.09
7200;BME280;3641;49.082;8.200;2022-08-01T10:16:32;100358.72;;;25.50;49.55
7200;BME280;3641;49.082;8.200;2022-08-01T10:19:00;100364.88;;;25.42;49.35
7200;BME280;3641;49.082;8.200;2022-08-01T10:21:27;100368.44;;;25.63;48.80
7200;BME280;3641;49.082;8.200;2022-08-01T10:23:56;100364.00;;;25.56;49.25
7200;BME280;3641;49.082;8.200;2022-08-01T10:26:25;100358.91;;;25.64;49.80
7200;BME280;3641;49.082;8.200;2022-08-01T10:28:52;100359.78;;;25.59;48.63
7200;BME280;3641;49.082;8.200;2022-08-01T10:31:20;100367.03;;;25.65;48.56
7200;BME280;3641;49.082;8.200;2022-08-01T10:33:47;100357.28;;;25.52;48.71
7200;BME280;3641;49.082;8.200;2022-08-01T10:36:17;100354.75;;;25.61;48.48
7200;BME280;3641;49.082;8.200;2022-08-01T10:38:44;100356.16;;;25.59;48.26
7200;BME280;3641;49.082;8.200;2022-08-01T10:41:13;100351.69;;;25.63;48.59
7200;BME280;3641;49.082;8.200;2022-08-01T10:43:41;100351.88;;;25.77;48.04
7200;BME280;3641;49.082;8.200;2022-08-01T10:46:08;100346.47;;;25.96;47.87
7200;BME280;3641;49.082;8.200;2022-08-01T10:48:41;100347.22;;;26.12;47.20
7200;BME280;3641;49.082;8.200;2022-08-01T10:51:09;100353.69;;;26.12;47.60
7200;BME280;3641;49.082;8.200;2022-08-01T10:53:36;100352.19;;;26.25;48.43
7200;BME280;3641;49.082;8.200;2022-08-01T10:56:13;100345.41;;;26.36;47.25
7200;BME280;3641;49.082;8.200;2022-08-01T10:58:41;100340.38;;;26.33;46.55
7200;BME280;3641;49.082;8.200;2022-08-01T11:01:16;100335.56;;;26.39;46.92
7200;BME280;3641;49.082;8.200;2022-08-01T11:03:46;100341.69;;;26.46;47.04
7200;BME280;3641;49.082;8.200;2022-08-01T11:06:24;100351.78;;;26.42;47.05
7200;BME280;3641;49.082;8.200;2022-08-01T11:08:54;100348.84;;;26.23;47.13
7200;BME280;3641;49.082;8.200;2022-08-01T11:11:22;100348.34;;;26.16;47.48
7200;BME280;3641;49.082;8.200;2022-08-01T11:14:01;100340.00;;;26.10;47.44
7200;BME280;3641;49.082;8.200;2022-08-01T11:16:33;100343.06;;;26.09;47.97
7200;BME280;3641;49.082;8.200;2022-08-01T11:19:00;100342.50;;;26.12;47.53
7200;BME280;3641;49.082;8.200;2022-08-01T11:21:58;100339.31;;;26.24;46.80
7200;BME280;3641;49.082;8.200;2022-08-01T11:24:54;100337.53;;;26.38;47.13
7200;BME280;3641;49.082;8.200;2022-08-01T11:27:26;100332.16;;;26.47;46.20
7200;BME280;3641;49.082;8.200;2022-08-01T11:30:21;100336.75;;;26.33;46.11
7200;BME280;3641;49.082;8.200;2022-08-01T11:32:50;100336.19;;;26.31;46.04
7200;BME280;3641;49.082;8.200;2022-08-01T11:35:17;100332.47;;;26.40;46.53
7200;BME280;3641;49.082;8.200;2022-08-01T11:37:46;100328.31;;;26.38;46.48
7200;BME280;3641;49.082;8.200;2022-08-01T11:40:17;100327.25;;;26.28;46.34
7200;BME280;3641;49.082;8.200;2022-08-01T11:42:45;100324.78;;;26.56;45.26
7200;BME280;3641;49.082;8.200;2022-08-01T11:45:11;100316.47;;;26.80;44.14
7200;BME280;3641;49.082;8.200;2022-08-01T11:47:46;100317.56;;;26.85;45.33
7200;BME280;3641;49.082;8.200;2022-08-01T11:50:30;100314.19;;;26.88;44.39
7200;BME280;3641;49.082;8.200;2022-08-01T11:52:57;100311.31;;;26.93;44.39
7200;BME280;3641;49.082;8.200;2022-08-01T11:55:26;100310.94;;;27.05;44.15
7200;BME280;3641;49.082;8.200;2022-08-01T11:58:00;100304.53;;;27.23;44.52
7200;BME280;3641;49.082;8.200;2022-08-01T12:00:27;100299.38;;;27.35;43.19
7200;BME280;3641;49.082;8.200;2022-08-01T12:02:59;100300.44;;;27.83;41.89
7200;BME280;3641;49.082;8.200;2022-08-01T12:05:27;100296.75;;;27.87;42.37
7200;BME280;3641;49.082;8.200;2022-08-01T12:07:55;100297.41;;;27.79;42.85
7200;BME280;3641;49.082;8.200;2022-08-01T12:10:24;100307.31;;;27.52;42.90
7200;BME280;3641;49.082;8.200;2022-08-01T12:12:52;100297.28;;;27.46;44.30
7200;BME280;3641;49.082;8.200;2022-08-01T12:15:22;100304.00;;;27.21;42.34
7200;BME280;3641;49.082;8.200;2022-08-01T12:17:50;100301.50;;;27.19;42.38
7200;BME280;3641;49.082;8.200;2022-08-01T12:20:20;100302.03;;;27.22;43.62
7200;BME280;3641;49.082;8.200;2022-08-01T12:22:53;100299.28;;;27.16;44.21
7200;BME280;3641;49.082;8.200;2022-08-01T12:25:19;100288.81;;;27.51;42.39
7200;BME280;3641;49.082;8.200;2022-08-01T12:27:47;100291.75;;;27.60;41.91
7200;BME280;3641;49.082;8.200;2022-08-01T12:30:17;100286.78;;;27.76;41.54
7200;BME280;3641;49.082;8.200;2022-08-01T12:32:46;100283.84;;;27.86;41.24
7200;BME280;3641;49.082;8.200;2022-08-01T12:35:14;100280.66;;;27.74;41.70
7200;BME280;3641;49.082;8.200;2022-08-01T12:37:42;100276.91;;;27.60;42.42
7200;BME280;3641;49.082;8.200;2022-08-01T12:40:14;100281.84;;;27.68;42.01
7200;BME280;3641;49.082;8.200;2022-08-01T12:42:42;100288.31;;;27.44;41.91
7200;BME280;3641;49.082;8.200;2022-08-01T12:45:11;100287.50;;;27.44;42.87
7200;BME280;3641;49.082;8.200;2022-08-01T12:47:38;100291.75;;;27.60;43.36
7200;BME280;3641;49.082;8.200;2022-08-01T12:50:10;100295.19;;;27.76;41.48
7200;BME280;3641;49.082;8.200;2022-08-01T12:52:37;100298.06;;;27.71;42.01
7200;BME280;3641;49.082;8.200;2022-08-01T12:55:07;100283.91;;;27.81;42.00
7200;BME280;3641;49.082;8.200;2022-08-01T12:57:36;100291.72;;;27.65;42.93
7200;BME280;3641;49.082;8.200;2022-08-01T13:00:08;100280.03;;;27.58;41.10
7200;BME280;3641;49.082;8.200;2022-08-01T13:02:36;100279.91;;;27.68;40.94
7200;BME280;3641;49.082;8.200;2022-08-01T13:05:03;100281.47;;;27.75;41.88
7200;BME280;3641;49.082;8.200;2022-08-01T13:07:42;100278.66;;;27.94;43.04
7200;BME280;3641;49.082;8.200;2022-08-01T13:10:10;100274.13;;;27.79;41.83
7200;BME280;3641;49.082;8.200;2022-08-01T13:12:38;100284.22;;;27.80;42.23
7200;BME280;3641;49.082;8.200;2022-08-01T13:15:18;100282.88;;;27.96;42.82
7200;BME280;3641;49.082;8.200;2022-08-01T13:17:45;100279.25;;;27.96;41.39